createdAt,value
2022-08-19T00:00:23.198Z,95221.78
2022-08-19T00:01:28.711Z,95223.78
2022-08-19T00:02:33.567Z,95232.13
2022-08-19T00:03:35.998Z,95226.56
2022-08-19T00:04:39.123Z,95236.19
2022-08-19T00:05:42.811Z,95236.94
2022-08-19T00:06:47.269Z,95227.84
2022-08-19T00:07:50.409Z,95224.31
2022-08-19T00:08:55.058Z,95222.28
2022-08-19T00:09:57.130Z,95209.66
2022-08-19T00:11:00.658Z,95206.88
2022-08-19T00:12:05.103Z,95207.63
2022-08-19T00:13:08.344Z,95217.22
2022-08-19T00:14:12.381Z,95217.75
2022-08-19T00:15:18.599Z,95212.16
2022-08-19T00:16:25.242Z,95215.72
2022-08-19T00:17:29.774Z,95214.97
2022-08-19T00:18:32.366Z,95219.00
2022-08-19T00:19:35.870Z,95225.81
2022-08-19T00:20:41.278Z,95218.69
2022-08-19T00:21:44.833Z,95217.47
2022-08-19T00:22:48.895Z,95210.34
2022-08-19T00:23:51.982Z,95209.59
2022-08-19T00:24:55.901Z,95203.28
2022-08-19T00:26:00.458Z,95203.28
2022-08-19T00:27:26.511Z,95203.28
2022-08-19T00:28:26.148Z,95209.59
2022-08-19T00:29:29.294Z,95196.19
2022-08-19T00:30:32.875Z,95208.84
2022-08-19T00:31:35.273Z,95191.91
2022-08-19T00:32:38.676Z,95200.25
2022-08-19T00:33:41.821Z,95187.63
2022-08-19T00:34:44.891Z,95195.97
2022-08-19T00:35:46.983Z,95190.41
2022-08-19T00:37:00.712Z,95192.41
2022-08-19T00:38:02.739Z,95184.84
2022-08-19T00:39:06.329Z,95182.06
2022-08-19T00:40:12.740Z,95183.31
2022-08-19T00:41:18.381Z,95182.56
2022-08-19T00:42:21.610Z,95184.59
2022-08-19T00:43:27.816Z,95179.00
2022-08-19T00:44:31.417Z,95177.00
2022-08-19T00:45:36.746Z,95181.81
2022-08-19T00:46:41.807Z,95181.81
2022-08-19T00:47:47.689Z,95190.16
2022-08-19T00:48:49.797Z,95184.59
2022-08-19T00:49:55.941Z,95185.34
2022-08-19T00:50:58.647Z,95183.81
2022-08-19T00:52:05.180Z,95181.53
2022-08-19T00:53:07.765Z,95177.47
2022-08-19T00:54:11.464Z,95171.16
2022-08-19T00:55:19.629Z,95170.41
2022-08-19T00:56:23.072Z,95164.09
2022-08-19T00:57:31.160Z,95163.31
2022-08-19T00:58:36.645Z,95174.44
2022-08-19T00:59:59.450Z,95174.44
2022-08-19T01:01:05.673Z,95184.81
2022-08-19T01:02:08.662Z,95186.09
2022-08-19T01:03:19.168Z,95193.66
2022-08-19T01:04:21.346Z,95193.66
2022-08-19T01:05:29.669Z,95194.44
2022-08-19T01:06:33.506Z,95189.88
2022-08-19T01:07:39.738Z,95197.72
2022-08-19T01:08:41.813Z,95192.16
2022-08-19T01:09:45.105Z,95184.31
2022-08-19T01:10:51.364Z,95189.88
2022-08-19T01:11:55.191Z,95194.69
2022-08-19T01:13:00.781Z,95189.13
2022-08-19T01:14:03.899Z,95182.06
2022-08-19T01:15:08.310Z,95176.50
2022-08-19T01:16:15.604Z,95166.88
2022-08-19T01:17:19.092Z,95165.38
2022-08-19T01:18:23.384Z,95169.66
2022-08-19T01:19:28.783Z,95163.84
2022-08-19T01:20:32.005Z,95169.41
2022-08-19T01:21:40.294Z,95167.91
2022-08-19T01:22:48.238Z,95166.88
2022-08-19T01:23:50.292Z,95181.53
2022-08-19T01:24:53.942Z,95186.34
2022-08-19T01:25:57.353Z,95192.66
2022-08-19T01:27:02.410Z,95185.56
2022-08-19T01:28:10.578Z,95185.56
2022-08-19T01:29:14.947Z,95187.88
2022-08-19T01:30:19.711Z,95189.13
2022-08-19T01:31:26.845Z,95187.09
2022-08-19T01:32:33.544Z,95182.03
2022-08-19T01:33:37.215Z,95181.53
2022-08-19T01:34:39.258Z,95178.50
2022-08-19T01:35:43.715Z,95180.00
2022-08-19T01:36:48.204Z,95179.78
2022-08-19T01:37:55.854Z,95180.28
2022-08-19T01:38:59.071Z,95176.75
2022-08-19T01:40:05.286Z,95186.34
2022-08-19T01:41:11.208Z,95185.09
2022-08-19T01:42:14.612Z,95182.31
2022-08-19T01:43:16.691Z,95191.91
2022-08-19T01:44:21.319Z,95193.44
2022-08-19T01:45:25.767Z,95191.41
2022-08-19T01:46:29.502Z,95199.50
2022-08-19T01:47:31.600Z,95207.09
2022-08-19T01:48:39.798Z,95214.91
2022-08-19T01:49:41.997Z,95215.44
2022-08-19T01:50:45.361Z,95209.88
2022-08-19T01:51:48.051Z,95207.09
2022-08-19T01:53:02.353Z,95216.19
2022-08-19T01:54:09.155Z,95211.91
2022-08-19T01:55:18.066Z,95215.44
2022-08-19T01:56:21.896Z,95218.69
2022-08-19T01:57:24.140Z,95218.69
2022-08-19T01:58:31.415Z,95219.19
2022-08-19T01:59:34.461Z,95223.50
2022-08-19T02:00:38.416Z,95217.94
2022-08-19T02:01:41.422Z,95217.69
2022-08-19T02:02:44.672Z,95203.78
2022-08-19T02:03:46.956Z,95196.72
2022-08-19T02:04:50.108Z,95195.19
2022-08-19T02:05:56.253Z,95184.06
2022-08-19T02:06:59.958Z,95179.78
2022-08-19T02:08:03.741Z,95179.00
2022-08-19T02:09:09.109Z,95186.59
2022-08-19T02:10:18.578Z,95178.78
2022-08-19T02:11:25.115Z,95177.25
2022-08-19T02:12:27.098Z,95182.81
2022-08-19T02:13:31.331Z,95183.56
2022-08-19T02:14:35.205Z,95180.78
2022-08-19T02:15:38.426Z,95185.84
2022-08-19T02:16:41.521Z,95192.16
2022-08-19T02:17:44.866Z,95186.59
2022-08-19T02:18:48.059Z,95197.72
2022-08-19T02:19:51.132Z,95200.50
2022-08-19T02:20:53.474Z,95202.53
2022-08-19T02:21:56.587Z,95194.19
2022-08-19T02:22:58.663Z,95192.16
2022-08-19T02:24:03.326Z,95193.44
2022-08-19T02:25:06.036Z,95201.78
2022-08-19T02:26:09.230Z,95206.56
2022-08-19T02:27:11.204Z,95205.78
2022-08-19T02:28:18.587Z,95216.16
2022-08-19T02:29:22.807Z,95216.91
2022-08-19T02:30:26.054Z,95226.53
2022-08-19T02:31:32.086Z,95215.41
2022-08-19T02:32:34.587Z,95226.53
2022-08-19T02:33:48.863Z,95214.66
2022-08-19T02:34:50.925Z,95213.88
2022-08-19T02:35:54.082Z,95225.00
2022-08-19T02:36:57.321Z,95213.13
2022-08-19T02:38:19.768Z,95211.09
2022-08-19T02:39:25.522Z,95213.88
2022-08-19T02:40:28.013Z,95211.63
2022-08-19T02:41:33.506Z,95205.31
2022-08-19T02:42:35.567Z,95211.63
2022-08-19T02:44:22.305Z,95217.19
2022-08-19T02:45:06.892Z,95206.06
2022-08-19T02:46:18.912Z,95204.53
2022-08-19T02:47:22.088Z,95202.53
2022-08-19T02:48:26.324Z,95201.00
2022-08-19T02:49:29.649Z,95207.31
2022-08-19T02:50:38.815Z,95191.16
2022-08-19T02:51:44.120Z,95197.47
2022-08-19T02:52:46.376Z,95183.56
2022-08-19T02:53:49.841Z,95182.81
2022-08-19T02:54:53.239Z,95177.25
2022-08-19T02:55:56.798Z,95167.38
2022-08-19T02:56:59.416Z,95165.88
2022-08-19T02:58:02.647Z,95156.25
2022-08-19T02:59:13.286Z,95160.31
2022-08-19T03:00:17.949Z,95149.94
2022-08-19T03:01:24.981Z,95151.97
2022-08-19T03:02:28.178Z,95153.22
2022-08-19T03:03:30.665Z,95153.22
2022-08-19T03:04:33.786Z,95153.22
2022-08-19T03:05:46.831Z,95158.03
2022-08-19T03:07:07.201Z,95151.72
2022-08-19T03:08:14.209Z,95146.66
2022-08-19T03:09:18.518Z,95140.34
2022-08-19T03:10:21.920Z,95136.03
2022-08-19T03:11:28.437Z,95132.00
2022-08-19T03:12:31.278Z,95135.53
2022-08-19T03:13:34.518Z,95129.72
2022-08-19T03:14:36.933Z,95146.38
2022-08-19T03:15:42.750Z,95144.38
2022-08-19T03:16:48.319Z,95140.06
2022-08-19T03:17:50.541Z,95141.59
2022-08-19T03:18:55.587Z,95148.91
2022-08-19T03:19:57.807Z,95154.47
2022-08-19T03:21:01.351Z,95156.50
2022-08-19T03:22:05.102Z,95160.81
2022-08-19T03:23:08.117Z,95167.88
2022-08-19T03:24:10.260Z,95178.25
2022-08-19T03:25:13.970Z,95183.81
2022-08-19T03:26:17.626Z,95188.63
2022-08-19T03:27:20.808Z,95192.63
2022-08-19T03:28:22.847Z,95198.94
2022-08-19T03:29:30.674Z,95207.28
2022-08-19T03:30:33.411Z,95209.31
2022-08-19T03:31:43.607Z,95208.56
2022-08-19T03:32:57.091Z,95214.88
2022-08-19T03:33:59.374Z,95215.63
2022-08-19T03:35:03.040Z,95210.06
2022-08-19T03:36:10.094Z,95209.31
2022-08-19T03:37:13.354Z,95215.63
2022-08-19T03:38:16.332Z,95208.56
2022-08-19T03:39:18.538Z,95207.03
2022-08-19T03:40:21.893Z,95213.38
2022-08-19T03:41:27.163Z,95210.59
2022-08-19T03:42:48.915Z,95210.34
2022-08-19T03:43:53.067Z,95200.72
2022-08-19T03:44:56.131Z,95206.28
2022-08-19T03:46:03.447Z,95199.22
2022-08-19T03:47:07.504Z,95196.44
2022-08-19T03:48:10.472Z,95190.13
2022-08-19T03:49:13.965Z,95188.09
2022-08-19T03:50:18.191Z,95177.47
2022-08-19T03:51:30.873Z,95181.00
2022-08-19T03:52:34.418Z,95173.94
2022-08-19T03:53:37.763Z,95177.97
2022-08-19T03:54:41.038Z,95175.19
2022-08-19T03:55:43.167Z,95177.97
2022-08-19T03:56:49.464Z,95180.00
2022-08-19T03:57:51.526Z,95183.53
2022-08-19T03:58:55.859Z,95182.03
2022-08-19T04:00:03.938Z,95180.50
2022-08-19T04:01:18.694Z,95181.25
2022-08-19T04:02:22.395Z,95179.72
2022-08-19T04:03:24.622Z,95182.50
2022-08-19T04:04:29.312Z,95191.63
2022-08-19T04:05:31.777Z,95177.72
2022-08-19T04:06:39.454Z,95179.72
2022-08-19T04:07:43.054Z,95174.19
2022-08-19T04:08:46.866Z,95174.97
2022-08-19T04:09:50.266Z,95165.84
2022-08-19T04:10:52.941Z,95165.84
2022-08-19T04:11:58.937Z,95162.78
2022-08-19T04:13:00.872Z,95164.81
2022-08-19T04:14:04.474Z,95170.38
2022-08-19T04:15:09.325Z,95169.63
2022-08-19T04:16:12.250Z,95169.63
2022-08-19T04:17:15.520Z,95173.69
2022-08-19T04:18:17.605Z,95177.97
2022-08-19T04:19:21.305Z,95172.91
2022-08-19T04:20:23.233Z,95172.91
2022-08-19T04:21:28.509Z,95172.91
2022-08-19T04:22:31.235Z,95165.84
2022-08-19T04:23:37.107Z,95168.63
2022-08-19T04:24:47.833Z,95169.88
2022-08-19T04:25:50.236Z,95172.16
2022-08-19T04:26:53.729Z,95176.47
2022-08-19T04:27:57.176Z,95167.34
2022-08-19T04:29:01.242Z,95172.16
2022-08-19T04:30:05.842Z,95185.28
2022-08-19T04:31:15.165Z,95183.75
2022-08-19T04:32:18.398Z,95183.75
2022-08-19T04:33:26.907Z,95186.53
2022-08-19T04:34:31.867Z,95187.31
2022-08-19T04:35:38.374Z,95196.16
2022-08-19T04:36:45.490Z,95196.91
2022-08-19T04:37:47.501Z,95200.97
2022-08-19T04:38:51.247Z,95204.50
2022-08-19T04:40:12.153Z,95205.75
2022-08-19T04:41:44.148Z,95198.66
2022-08-19T04:42:46.160Z,95198.66
2022-08-19T04:43:51.394Z,95198.66
2022-08-19T04:44:53.545Z,95203.47
2022-08-19T04:46:01.035Z,95204.22
2022-08-19T04:47:11.456Z,95209.03
2022-08-19T04:48:27.245Z,95213.06
2022-08-19T04:49:30.988Z,95218.63
2022-08-19T04:50:34.520Z,95210.81
2022-08-19T04:51:40.928Z,95221.16
2022-08-19T04:52:43.988Z,95216.34
2022-08-19T04:53:46.388Z,95214.81
2022-08-19T04:54:49.458Z,95217.13
2022-08-19T04:55:52.536Z,95228.97
2022-08-19T04:56:55.946Z,95217.59
2022-08-19T04:57:58.030Z,95223.41
2022-08-19T04:59:05.241Z,95224.69
2022-08-19T05:00:09.086Z,95221.91
2022-08-19T05:01:15.217Z,95226.72
2022-08-19T05:02:17.166Z,95225.94
2022-08-19T05:03:20.281Z,95224.69
2022-08-19T05:04:22.229Z,95230.00
2022-08-19T05:05:25.386Z,95228.72
2022-08-19T05:06:28.330Z,95231.50
2022-08-19T05:07:32.178Z,95241.84
2022-08-19T05:08:35.267Z,95235.56
2022-08-19T05:09:55.517Z,95247.41
2022-08-19T05:11:01.615Z,95245.38
2022-08-19T05:12:04.541Z,95257.78
2022-08-19T05:13:10.160Z,95259.28
2022-08-19T05:14:13.858Z,95257.03
2022-08-19T05:15:16.977Z,95248.69
2022-08-19T05:16:21.590Z,95249.44
2022-08-19T05:17:27.705Z,95247.41
2022-08-19T05:18:49.307Z,95243.88
2022-08-19T05:20:09.810Z,95245.13
2022-08-19T05:21:33.648Z,95243.13
2022-08-19T05:22:37.608Z,95238.31
2022-08-19T05:23:39.841Z,95243.88
2022-08-19T05:25:02.481Z,95241.09
2022-08-19T05:26:06.537Z,95243.13
2022-08-19T05:27:09.894Z,95247.91
2022-08-19T05:28:11.857Z,95245.13
2022-08-19T05:29:18.392Z,95250.69
2022-08-19T05:30:33.413Z,95245.13
2022-08-19T05:31:43.813Z,95234.00
2022-08-19T05:32:46.907Z,95242.34
2022-08-19T05:33:49.057Z,95240.34
2022-08-19T05:34:52.122Z,95236.78
2022-08-19T05:35:54.167Z,95232.78
2022-08-19T05:36:59.459Z,95222.91
2022-08-19T05:38:01.615Z,95217.34
2022-08-19T05:39:05.257Z,95219.63
2022-08-19T05:40:08.534Z,95218.13
2022-08-19T05:41:13.064Z,95213.31
2022-08-19T05:42:15.309Z,95207.75
2022-08-19T05:43:18.451Z,95223.16
2022-08-19T05:44:23.227Z,95218.88
2022-08-19T05:45:26.281Z,95218.88
2022-08-19T05:46:28.355Z,95222.91
2022-08-19T05:47:31.331Z,95216.59
2022-08-19T05:48:33.338Z,95223.69
2022-08-19T05:49:37.245Z,95220.91
2022-08-19T05:50:41.008Z,95217.34
2022-08-19T05:51:44.664Z,95209.78
2022-08-19T05:52:50.690Z,95211.03
2022-08-19T05:53:54.290Z,95205.47
2022-08-19T05:54:57.320Z,95212.31
2022-08-19T05:55:59.597Z,95210.28
2022-08-19T05:57:03.282Z,95214.56
2022-08-19T05:58:07.016Z,95203.97
2022-08-19T05:59:12.316Z,95208.78
2022-08-19T06:00:19.436Z,95209.53
2022-08-19T06:01:24.522Z,95212.78
2022-08-19T06:02:26.783Z,95212.78
2022-08-19T06:03:29.806Z,95207.25
2022-08-19T06:04:32.866Z,95215.56
2022-08-19T06:05:42.335Z,95219.09
2022-08-19T06:06:55.805Z,95221.13
2022-08-19T06:07:59.656Z,95214.81
2022-08-19T06:09:02.743Z,95216.84
2022-08-19T06:10:05.722Z,95216.06
2022-08-19T06:11:17.805Z,95220.38
2022-08-19T06:12:20.767Z,95223.91
2022-08-19T06:13:23.762Z,95219.63
2022-08-19T06:14:29.626Z,95225.19
2022-08-19T06:15:34.011Z,95225.19
2022-08-19T06:16:37.282Z,95227.19
2022-08-19T06:17:40.932Z,95222.88
2022-08-19T06:18:45.270Z,95226.44
2022-08-19T06:19:48.253Z,95231.97
2022-08-19T06:20:55.915Z,95236.75
2022-08-19T06:22:00.889Z,95236.75
2022-08-19T06:23:04.715Z,95238.78
2022-08-19T06:24:10.950Z,95247.13
2022-08-19T06:25:13.586Z,95249.16
2022-08-19T06:26:17.619Z,95252.69
2022-08-19T06:27:21.077Z,95252.69
2022-08-19T06:28:24.699Z,95253.16
2022-08-19T06:29:29.138Z,95255.19
2022-08-19T06:30:32.474Z,95246.38
2022-08-19T06:31:37.884Z,95249.63
2022-08-19T06:32:42.868Z,95255.19
2022-08-19T06:33:45.931Z,95253.16
2022-08-19T06:34:49.259Z,95252.41
2022-08-19T06:35:51.444Z,95246.09
2022-08-19T06:36:55.055Z,95256.44
2022-08-19T06:37:57.188Z,95252.91
2022-08-19T06:39:01.151Z,95248.09
2022-08-19T06:40:04.707Z,95253.66
2022-08-19T06:41:07.815Z,95251.41
2022-08-19T06:42:14.220Z,95254.19
2022-08-19T06:43:16.816Z,95251.41
2022-08-19T06:44:25.814Z,95249.13
2022-08-19T06:45:34.830Z,95245.09
2022-08-19T06:46:44.568Z,95245.09
2022-08-19T06:47:57.162Z,95247.09
2022-08-19T06:48:59.621Z,95251.88
2022-08-19T06:50:04.015Z,95253.91
2022-08-19T06:51:08.725Z,95251.13
2022-08-19T06:52:13.856Z,95250.38
2022-08-19T06:53:16.380Z,95254.66
2022-08-19T06:54:20.541Z,95251.88
2022-08-19T06:55:22.698Z,95248.34
2022-08-19T06:56:32.807Z,95250.38
2022-08-19T06:57:36.345Z,95246.34
2022-08-19T06:58:39.407Z,95247.59
2022-08-19T06:59:42.395Z,95246.34
2022-08-19T07:00:44.714Z,95242.03
2022-08-19T07:01:51.326Z,95241.25
2022-08-19T07:02:58.679Z,95235.72
2022-08-19T07:04:04.268Z,95238.50
2022-08-19T07:05:08.672Z,95240.50
2022-08-19T07:06:41.178Z,95237.72
2022-08-19T07:07:40.041Z,95240.50
2022-08-19T07:08:47.485Z,95241.25
2022-08-19T07:09:59.018Z,95235.72
2022-08-19T07:11:03.366Z,95241.25
2022-08-19T07:12:16.278Z,95234.97
2022-08-19T07:13:18.549Z,95226.63
2022-08-19T07:14:25.515Z,95229.41
2022-08-19T07:15:28.115Z,95225.88
2022-08-19T07:16:32.994Z,95223.84
2022-08-19T07:17:38.349Z,95223.84
2022-08-19T07:18:43.908Z,95212.72
2022-08-19T07:19:47.484Z,95224.59
2022-08-19T07:20:49.413Z,95219.81
2022-08-19T07:21:54.068Z,95215.50
2022-08-19T07:22:56.439Z,95219.03
2022-08-19T07:24:04.066Z,95221.31
2022-08-19T07:25:11.611Z,95219.31
2022-08-19T07:26:16.080Z,95210.22
2022-08-19T07:27:24.138Z,95213.75
2022-08-19T07:28:27.814Z,95214.53
2022-08-19T07:29:34.467Z,95208.19
2022-08-19T07:30:39.038Z,95213.25
2022-08-19T07:31:43.661Z,95209.19
2022-08-19T07:32:47.127Z,95204.66
2022-08-19T07:33:56.271Z,95203.41
2022-08-19T07:35:01.358Z,95197.06
2022-08-19T07:36:06.788Z,95199.09
2022-08-19T07:37:10.643Z,95198.34
2022-08-19T07:38:13.780Z,95188.75
2022-08-19T07:39:18.157Z,95194.28
2022-08-19T07:40:21.262Z,95195.06
2022-08-19T07:41:27.322Z,95195.06
2022-08-19T07:42:30.573Z,95200.63
2022-08-19T07:43:35.238Z,95196.59
2022-08-19T07:45:43.347Z,95202.66
2022-08-19T07:46:53.189Z,95201.13
2022-08-19T07:47:56.973Z,95209.47
2022-08-19T07:49:01.434Z,95206.69
2022-08-19T07:50:08.007Z,95207.47
2022-08-19T07:51:14.335Z,95205.94
2022-08-19T07:52:19.439Z,95211.50
2022-08-19T07:53:21.794Z,95209.47
2022-08-19T07:54:26.547Z,95206.69
2022-08-19T07:55:40.625Z,95206.69
2022-08-19T07:56:45.848Z,95203.16
2022-08-19T07:57:47.996Z,95208.72
2022-08-19T07:58:53.288Z,95215.03
2022-08-19T07:59:56.539Z,95212.25
2022-08-19T08:01:00.504Z,95213.50
2022-08-19T08:02:03.682Z,95217.81
2022-08-19T08:03:07.171Z,95217.03
2022-08-19T08:04:27.877Z,95219.06
2022-08-19T08:05:48.416Z,95218.31
2022-08-19T08:07:08.770Z,95222.34
2022-08-19T08:08:29.127Z,95218.81
2022-08-19T08:09:35.993Z,95220.09
2022-08-19T08:10:42.014Z,95218.81
2022-08-19T08:11:50.609Z,95218.81
2022-08-19T08:13:08.916Z,95223.63
2022-08-19T08:14:29.324Z,95218.81
2022-08-19T08:15:33.095Z,95214.53
2022-08-19T08:16:39.477Z,95209.72
2022-08-19T08:17:48.821Z,95212.50
2022-08-19T08:18:54.189Z,95221.31
2022-08-19T08:19:56.737Z,95225.63
2022-08-19T08:21:00.573Z,95225.63
2022-08-19T08:22:03.658Z,95224.84
2022-08-19T08:23:26.808Z,95217.31
2022-08-19T08:24:32.653Z,95233.19
2022-08-19T08:25:36.449Z,95233.97
2022-08-19T08:26:39.651Z,95235.97
2022-08-19T08:27:50.416Z,95233.19
2022-08-19T08:28:57.186Z,95237.25
2022-08-19T08:29:59.370Z,95228.16
2022-08-19T08:31:09.425Z,95235.72
2022-08-19T08:32:14.003Z,95232.19
2022-08-19T08:33:33.945Z,95234.97
2022-08-19T08:34:39.542Z,95223.84
2022-08-19T08:35:43.202Z,95231.44
2022-08-19T08:36:47.583Z,95225.13
2022-08-19T08:37:51.349Z,95229.41
2022-08-19T08:39:56.590Z,95233.44
2022-08-19T08:41:08.443Z,95229.91
2022-08-19T08:42:18.429Z,95238.25
2022-08-19T08:43:27.546Z,95231.91
2022-08-19T08:46:03.676Z,95244.28
2022-08-19T08:47:13.622Z,95244.28
2022-08-19T08:48:23.892Z,95241.53
2022-08-19T08:49:35.607Z,95247.06
2022-08-19T08:50:44.219Z,95247.06
2022-08-19T08:51:59.488Z,95241.53
2022-08-19T08:53:06.244Z,95247.06
2022-08-19T08:54:13.065Z,95253.38
2022-08-19T08:55:20.506Z,95249.59
2022-08-19T08:56:24.041Z,95255.91
2022-08-19T08:57:36.978Z,95255.16
2022-08-19T08:58:54.356Z,95261.47
2022-08-19T09:00:03.511Z,95255.16
2022-08-19T09:01:07.765Z,95261.47
2022-08-19T09:02:11.357Z,95260.69
2022-08-19T09:03:20.845Z,95261.47
2022-08-19T09:04:25.259Z,95260.69
2022-08-19T09:05:39.677Z,95273.31
2022-08-19T09:06:58.211Z,95269.03
2022-08-19T09:08:04.544Z,95266.25
2022-08-19T09:09:16.133Z,95276.63
2022-08-19T09:10:25.971Z,95267.53
2022-08-19T09:11:42.730Z,95271.81
2022-08-19T09:12:54.306Z,95270.31
2022-08-19T09:14:07.365Z,95270.31
2022-08-19T09:15:11.596Z,95273.84
2022-08-19T09:16:18.243Z,95273.09
2022-08-19T09:17:31.809Z,95271.81
2022-08-19T09:18:43.298Z,95270.31
2022-08-19T09:19:52.071Z,95261.19
2022-08-19T09:20:55.339Z,95268.78
2022-08-19T09:22:01.641Z,95259.19
2022-08-19T09:23:05.103Z,95268.03
2022-08-19T09:24:07.482Z,95268.78
2022-08-19T09:25:13.330Z,95268.78
2022-08-19T09:26:17.606Z,95266.75
2022-08-19T09:27:42.218Z,95258.94
2022-08-19T09:28:48.854Z,95263.22
2022-08-19T09:29:50.916Z,95265.25
2022-08-19T09:30:54.136Z,95267.25
2022-08-19T09:31:57.382Z,95263.22
2022-08-19T09:33:00.474Z,95260.44
2022-08-19T09:34:06.018Z,95260.44
2022-08-19T09:35:10.153Z,95264.75
2022-08-19T09:36:21.762Z,95252.09
2022-08-19T09:37:38.904Z,95257.66
2022-08-19T09:38:43.876Z,95261.97
2022-08-19T09:39:45.881Z,95259.19
2022-08-19T09:40:49.027Z,95260.69
2022-08-19T09:41:51.343Z,95263.47
2022-08-19T09:42:54.468Z,95265.00
2022-08-19T09:43:58.576Z,95267.75
2022-08-19T09:45:02.227Z,95269.03
2022-08-19T09:46:11.027Z,95271.06
2022-08-19T09:47:14.797Z,95273.31
2022-08-19T09:48:19.094Z,95263.47
2022-08-19T09:49:25.555Z,95273.09
2022-08-19T09:50:28.679Z,95280.16
2022-08-19T09:51:30.664Z,95273.84
2022-08-19T09:52:37.554Z,95282.16
2022-08-19T09:53:42.553Z,95283.69
2022-08-19T09:54:46.008Z,95283.69
2022-08-19T09:55:57.007Z,95280.16
2022-08-19T09:57:01.276Z,95282.16
2022-08-19T09:58:07.914Z,95284.19
2022-08-19T09:59:11.229Z,95282.16
2022-08-19T10:00:15.189Z,95280.16
2022-08-19T10:01:21.237Z,95282.94
2022-08-19T10:02:24.329Z,95271.81
2022-08-19T10:03:32.030Z,95282.94
2022-08-19T10:04:49.002Z,95280.16
2022-08-19T10:05:55.145Z,95274.59
2022-08-19T10:06:58.531Z,95274.84
2022-08-19T10:08:04.477Z,95274.59
2022-08-19T10:09:33.533Z,95276.09
2022-08-19T10:10:37.013Z,95281.91
2022-08-19T10:11:49.860Z,95286.72
2022-08-19T10:12:56.055Z,95283.47
2022-08-19T10:13:59.261Z,95279.16
2022-08-19T10:15:01.482Z,95281.91
2022-08-19T10:16:07.417Z,95285.47
2022-08-19T10:17:17.527Z,95280.69
2022-08-19T10:18:24.466Z,95277.16
2022-08-19T10:19:27.237Z,95276.63
2022-08-19T10:20:31.105Z,95269.03
2022-08-19T10:21:36.607Z,95268.28
2022-08-19T10:22:38.863Z,95273.84
2022-08-19T10:23:46.084Z,95268.28
2022-08-19T10:24:50.504Z,95272.59
2022-08-19T10:25:54.561Z,95277.66
2022-08-19T10:26:58.859Z,95276.91
2022-08-19T10:28:02.586Z,95283.97
2022-08-19T10:29:06.504Z,95278.16
2022-08-19T10:30:14.379Z,95279.41
2022-08-19T10:31:19.519Z,95276.63
2022-08-19T10:32:33.696Z,95274.38
2022-08-19T10:33:53.598Z,95281.91
2022-08-19T10:34:57.400Z,95271.59
2022-08-19T10:36:04.239Z,95277.16
2022-08-19T10:37:10.691Z,95277.91
2022-08-19T10:38:13.871Z,95271.81
2022-08-19T10:39:17.098Z,95279.41
2022-08-19T10:40:20.744Z,95275.13
2022-08-19T10:41:25.364Z,95282.44
2022-08-19T10:42:27.387Z,95274.59
2022-08-19T10:43:30.339Z,95273.38
2022-08-19T10:44:36.266Z,95278.44
2022-08-19T10:45:39.325Z,95283.97
2022-08-19T10:46:55.760Z,95272.59
2022-08-19T10:47:58.736Z,95271.34
2022-08-19T10:49:02.554Z,95269.31
2022-08-19T10:50:28.725Z,95267.31
2022-08-19T10:51:51.094Z,95270.31
2022-08-19T10:52:53.065Z,95268.81
2022-08-19T10:54:00.211Z,95272.88
2022-08-19T10:55:21.598Z,95262.50
2022-08-19T10:56:44.036Z,95263.75
2022-08-19T10:58:01.726Z,95262.50
2022-08-19T10:59:06.870Z,95267.56
2022-08-19T11:00:10.377Z,95259.22
2022-08-19T11:01:13.423Z,95264.78
2022-08-19T11:02:16.712Z,95264.00
2022-08-19T11:03:19.624Z,95256.44
2022-08-19T11:04:23.485Z,95261.25
2022-08-19T11:05:36.472Z,95259.22
2022-08-19T11:06:44.458Z,95265.03
2022-08-19T11:07:47.675Z,95260.25
2022-08-19T11:08:49.711Z,95266.56
2022-08-19T11:09:52.967Z,95256.69
2022-08-19T11:11:01.502Z,95260.00
2022-08-19T11:12:06.898Z,95259.47
2022-08-19T11:13:08.992Z,95261.00
2022-08-19T11:14:14.153Z,95258.22
2022-08-19T11:15:16.556Z,95258.22
2022-08-19T11:16:22.602Z,95256.69
2022-08-19T11:17:24.680Z,95251.44
2022-08-19T11:18:28.078Z,95257.00
2022-08-19T11:19:32.496Z,95260.53
2022-08-19T11:20:34.555Z,95253.44
2022-08-19T11:21:41.687Z,95260.25
2022-08-19T11:22:44.849Z,95254.22
2022-08-19T11:23:48.182Z,95255.75
2022-08-19T11:24:51.262Z,95254.97
2022-08-19T11:25:54.144Z,95260.78
2022-08-19T11:27:03.611Z,95262.81
2022-08-19T11:28:07.031Z,95261.31
2022-08-19T11:29:13.800Z,95257.25
2022-08-19T11:30:16.951Z,95257.25
2022-08-19T11:31:22.553Z,95257.25
2022-08-19T11:32:27.859Z,95250.44
2022-08-19T11:33:30.106Z,95253.22
2022-08-19T11:34:33.090Z,95248.16
2022-08-19T11:35:35.083Z,95254.22
2022-08-19T11:36:40.217Z,95255.75
2022-08-19T11:37:43.248Z,95254.97
2022-08-19T11:38:46.010Z,95251.69
2022-08-19T11:39:53.944Z,95257.00
2022-08-19T11:40:57.695Z,95252.19
2022-08-19T11:42:02.492Z,95257.00
2022-08-19T11:43:06.008Z,95249.41
2022-08-19T11:44:09.483Z,95262.25
2022-08-19T11:45:11.747Z,95259.78
2022-08-19T11:46:16.754Z,95257.00
2022-08-19T11:47:19.321Z,95266.88
2022-08-19T11:48:23.599Z,95265.31
2022-08-19T11:49:26.891Z,95265.81
2022-08-19T11:50:29.264Z,95259.78
2022-08-19T11:51:33.298Z,95264.09
2022-08-19T11:52:36.768Z,95265.31
2022-08-19T11:53:40.497Z,95258.22
2022-08-19T11:54:42.463Z,95254.22
2022-08-19T11:55:46.034Z,95261.75
2022-08-19T11:56:52.193Z,95262.56
2022-08-19T11:57:55.559Z,95265.31
2022-08-19T11:58:59.459Z,95259.78
2022-08-19T12:00:04.530Z,95261.00
2022-08-19T12:01:09.493Z,95259.53
2022-08-19T12:02:13.093Z,95264.84
2022-08-19T12:03:15.770Z,95262.84
2022-08-19T12:04:18.984Z,95268.94
2022-08-19T12:05:22.626Z,95263.38
2022-08-19T12:06:30.016Z,95256.53
2022-08-19T12:07:34.095Z,95270.44
2022-08-19T12:08:36.144Z,95268.19
2022-08-19T12:09:42.625Z,95261.56
2022-08-19T12:10:46.302Z,95261.84
2022-08-19T12:11:49.869Z,95260.34
2022-08-19T12:12:58.009Z,95265.91
2022-08-19T12:14:03.539Z,95261.84
2022-08-19T12:15:08.296Z,95270.19
2022-08-19T12:16:13.060Z,95277.00
2022-08-19T12:17:16.231Z,95272.97
2022-08-19T12:18:18.220Z,95269.69
2022-08-19T12:19:22.634Z,95272.97
2022-08-19T12:20:25.847Z,95268.66
2022-08-19T12:21:30.079Z,95271.44
2022-08-19T12:22:33.460Z,95272.69
2022-08-19T12:23:35.416Z,95272.22
2022-08-19T12:24:38.361Z,95273.75
2022-08-19T12:25:50.902Z,95274.50
2022-08-19T12:26:54.544Z,95281.56
2022-08-19T12:27:57.893Z,95280.53
2022-08-19T12:29:01.511Z,95283.81
2022-08-19T12:30:06.352Z,95288.38
2022-08-19T12:31:10.097Z,95282.56
2022-08-19T12:32:12.483Z,95289.63
2022-08-19T12:33:15.923Z,95289.63
2022-08-19T12:34:18.408Z,95288.13
2022-08-19T12:35:22.203Z,95289.63
2022-08-19T12:36:25.823Z,95291.16
2022-08-19T12:37:29.022Z,95299.50
2022-08-19T12:38:31.138Z,95292.41
2022-08-19T12:39:37.229Z,95292.41
2022-08-19T12:40:41.113Z,95301.28
2022-08-19T12:41:43.311Z,95295.97
2022-08-19T12:42:54.439Z,95307.84
2022-08-19T12:43:56.518Z,95300.75
2022-08-19T12:44:59.688Z,95293.69
2022-08-19T12:46:05.080Z,95296.47
2022-08-19T12:47:09.163Z,95294.44
2022-08-19T12:48:33.572Z,95293.69
2022-08-19T12:49:54.021Z,95295.19
2022-08-19T12:50:58.800Z,95311.13
2022-08-19T12:52:01.416Z,95305.56
2022-08-19T12:53:04.711Z,95308.81
2022-08-19T12:54:07.433Z,95304.06
2022-08-19T12:55:11.575Z,95307.84